sensor_id;sensor_type;location;lat;lon;timestamp;P1;durP1;ratioP1;P2;durP2;ratioP2
7517;SDS011;3800;48.922;9.444;2022-12-16T00:01:03;29.13;;;19.37;;
7517;SDS011;3800;48.922;9.444;2022-12-16T00:03:31;31.50;;;20.73;;
7517;SDS011;3800;48.922;9.444;2022-12-16T00:05:59;29.83;;;19.53;;
7517;SDS011;3800;48.922;9.444;2022-12-16T00:08:27;29.90;;;18.90;;
7517;SDS011;3800;48.922;9.444;2022-12-16T00:10:56;30.33;;;19.33;;
7517;SDS011;3800;48.922;9.444;2022-12-16T00:13:24;27.63;;;19.23;;
7517;SDS011;3800;48.922;9.444;2022-12-16T00:15:52;28.70;;;19.77;;
7517;SDS011;3800;48.922;9.444;2022-12-16T00:18:19;32.33;;;19.87;;
7517;SDS011;3800;48.922;9.444;2022-12-16T00:20:48;29.60;;;19.17;;
7517;SDS011;3800;48.922;9.444;2022-12-16T00:23:15;28.87;;;20.33;;
7517;SDS011;3800;48.922;9.444;2022-12-16T00:25:43;29.17;;;19.13;;
7517;SDS011;3800;48.922;9.444;2022-12-16T00:28:10;28.00;;;19.00;;
7517;SDS011;3800;48.922;9.444;2022-12-16T00:30:38;29.00;;;20.57;;
7517;SDS011;3800;48.922;9.444;2022-12-16T00:33:06;26.27;;;19.30;;
7517;SDS011;3800;48.922;9.444;2022-12-16T00:35:35;27.83;;;19.63;;
7517;SDS011;3800;48.922;9.444;2022-12-16T00:38:02;28.40;;;19.27;;
7517;SDS011;3800;48.922;9.444;2022-12-16T00:40:30;29.83;;;21.37;;
7517;SDS011;3800;48.922;9.444;2022-12-16T00:42:58;27.50;;;18.93;;
7517;SDS011;3800;48.922;9.444;2022-12-16T00:45:25;28.30;;;19.63;;
7517;SDS011;3800;48.922;9.444;2022-12-16T00:47:53;26.97;;;18.70;;
7517;SDS011;3800;48.922;9.444;2022-12-16T00:50:21;26.83;;;18.60;;
7517;SDS011;3800;48.922;9.444;2022-12-16T00:52:48;27.87;;;18.53;;
7517;SDS011;3800;48.922;9.444;2022-12-16T00:55:16;28.27;;;18.03;;
7517;SDS011;3800;48.922;9.444;2022-12-16T00:57:44;26.73;;;17.90;;
7517;SDS011;3800;48.922;9.444;2022-12-16T01:00:12;27.17;;;18.70;;
7517;SDS011;3800;48.922;9.444;2022-12-16T01:02:41;26.73;;;18.67;;
7517;SDS011;3800;48.922;9.444;2022-12-16T01:05:09;27.23;;;18.60;;
7517;SDS011;3800;48.922;9.444;2022-12-16T01:07:36;26.80;;;18.27;;
7517;SDS011;3800;48.922;9.444;2022-12-16T01:10:04;29.90;;;18.87;;
7517;SDS011;3800;48.922;9.444;2022-12-16T01:12:32;31.43;;;19.20;;
7517;SDS011;3800;48.922;9.444;2022-12-16T01:14:59;30.03;;;19.83;;
7517;SDS011;3800;48.922;9.444;2022-12-16T01:17:27;25.80;;;18.73;;
7517;SDS011;3800;48.922;9.444;2022-12-16T01:19:55;30.07;;;19.33;;
7517;SDS011;3800;48.922;9.444;2022-12-16T01:22:23;30.47;;;19.20;;
7517;SDS011;3800;48.922;9.444;2022-12-16T01:24:50;26.93;;;19.17;;
7517;SDS011;3800;48.922;9.444;2022-12-16T01:27:18;30.63;;;18.87;;
7517;SDS011;3800;48.922;9.444;2022-12-16T01:29:46;29.03;;;20.50;;
7517;SDS011;3800;48.922;9.444;2022-12-16T01:32:14;25.33;;;19.07;;
7517;SDS011;3800;48.922;9.444;2022-12-16T01:34:42;31.07;;;19.83;;
7517;SDS011;3800;48.922;9.444;2022-12-16T01:37:11;29.57;;;20.03;;
7517;SDS011;3800;48.922;9.444;2022-12-16T01:39:38;29.70;;;20.07;;
7517;SDS011;3800;48.922;9.444;2022-12-16T01:42:11;26.77;;;18.23;;
7517;SDS011;3800;48.922;9.444;2022-12-16T01:44:41;31.00;;;19.90;;
7517;SDS011;3800;48.922;9.444;2022-12-16T01:47:08;25.73;;;18.33;;
7517;SDS011;3800;48.922;9.444;2022-12-16T01:49:37;31.03;;;19.67;;
7517;SDS011;3800;48.922;9.444;2022-12-16T01:52:04;30.53;;;18.87;;
7517;SDS011;3800;48.922;9.444;2022-12-16T01:54:35;27.47;;;19.47;;
7517;SDS011;3800;48.922;9.444;2022-12-16T01:57:04;29.13;;;18.57;;
7517;SDS011;3800;48.922;9.444;2022-12-16T01:59:30;30.43;;;20.43;;
7517;SDS011;3800;48.922;9.444;2022-12-16T02:01:58;28.53;;;19.73;;
7517;SDS011;3800;48.922;9.444;2022-12-16T02:04:26;29.00;;;19.60;;
7517;SDS011;3800;48.922;9.444;2022-12-16T02:06:53;28.53;;;19.07;;
7517;SDS011;3800;48.922;9.444;2022-12-16T02:09:21;27.80;;;20.00;;
7517;SDS011;3800;48.922;9.444;2022-12-16T02:12:24;30.27;;;20.10;;
7517;SDS011;3800;48.922;9.444;2022-12-16T02:14:45;31.80;;;18.93;;
7517;SDS011;3800;48.922;9.444;2022-12-16T02:17:19;30.63;;;19.43;;
7517;SDS011;3800;48.922;9.444;2022-12-16T02:23:00;27.30;;;19.57;;
7517;SDS011;3800;48.922;9.444;2022-12-16T02:28:39;36.57;;;20.97;;
7517;SDS011;3800;48.922;9.444;2022-12-16T02:31:08;29.07;;;20.80;;
7517;SDS011;3800;48.922;9.444;2022-12-16T02:33:39;36.87;;;22.70;;
7517;SDS011;3800;48.922;9.444;2022-12-16T02:36:22;31.87;;;22.43;;
7517;SDS011;3800;48.922;9.444;2022-12-16T02:38:54;33.80;;;22.07;;
7517;SDS011;3800;48.922;9.444;2022-12-16T02:41:22;31.20;;;22.57;;
7517;SDS011;3800;48.922;9.444;2022-12-16T02:43:53;32.07;;;21.67;;
7517;SDS011;3800;48.922;9.444;2022-12-16T02:46:21;36.43;;;23.60;;
7517;SDS011;3800;48.922;9.444;2022-12-16T02:48:48;31.03;;;21.87;;
7517;SDS011;3800;48.922;9.444;2022-12-16T02:51:15;32.93;;;22.17;;
7517;SDS011;3800;48.922;9.444;2022-12-16T02:53:43;37.13;;;23.77;;
7517;SDS011;3800;48.922;9.444;2022-12-16T02:56:20;39.17;;;24.77;;
7517;SDS011;3800;48.922;9.444;2022-12-16T02:58:46;31.97;;;23.03;;
7517;SDS011;3800;48.922;9.444;2022-12-16T03:01:30;37.33;;;23.70;;
7517;SDS011;3800;48.922;9.444;2022-12-16T03:04:05;35.63;;;23.67;;
7517;SDS011;3800;48.922;9.444;2022-12-16T03:06:31;36.43;;;23.97;;
7517;SDS011;3800;48.922;9.444;2022-12-16T03:08:59;36.23;;;24.93;;
7517;SDS011;3800;48.922;9.444;2022-12-16T03:11:27;36.90;;;24.03;;
7517;SDS011;3800;48.922;9.444;2022-12-16T03:13:55;33.93;;;23.30;;
7517;SDS011;3800;48.922;9.444;2022-12-16T03:16:24;32.73;;;22.43;;
7517;SDS011;3800;48.922;9.444;2022-12-16T03:18:53;34.97;;;23.37;;
7517;SDS011;3800;48.922;9.444;2022-12-16T03:21:20;36.73;;;24.73;;
7517;SDS011;3800;48.922;9.444;2022-12-16T03:23:51;36.47;;;24.00;;
7517;SDS011;3800;48.922;9.444;2022-12-16T03:26:20;35.57;;;23.60;;
7517;SDS011;3800;48.922;9.444;2022-12-16T03:28:49;39.73;;;26.33;;
7517;SDS011;3800;48.922;9.444;2022-12-16T03:31:18;34.87;;;22.73;;
7517;SDS011;3800;48.922;9.444;2022-12-16T03:33:47;37.70;;;24.33;;
7517;SDS011;3800;48.922;9.444;2022-12-16T03:36:14;35.67;;;24.60;;
7517;SDS011;3800;48.922;9.444;2022-12-16T03:38:39;35.77;;;23.67;;
7517;SDS011;3800;48.922;9.444;2022-12-16T03:41:07;38.00;;;23.90;;
7517;SDS011;3800;48.922;9.444;2022-12-16T03:43:35;36.63;;;25.70;;
7517;SDS011;3800;48.922;9.444;2022-12-16T03:46:03;36.70;;;24.80;;
7517;SDS011;3800;48.922;9.444;2022-12-16T03:48:30;36.10;;;24.13;;
7517;SDS011;3800;48.922;9.444;2022-12-16T03:50:58;39.33;;;25.33;;
7517;SDS011;3800;48.922;9.444;2022-12-16T03:53:25;40.80;;;26.97;;
7517;SDS011;3800;48.922;9.444;2022-12-16T03:55:53;38.40;;;25.93;;
7517;SDS011;3800;48.922;9.444;2022-12-16T03:58:20;37.17;;;24.27;;
7517;SDS011;3800;48.922;9.444;2022-12-16T04:00:48;35.27;;;25.23;;
7517;SDS011;3800;48.922;9.444;2022-12-16T04:03:16;35.47;;;25.10;;
7517;SDS011;3800;48.922;9.444;2022-12-16T04:05:44;36.80;;;25.27;;
7517;SDS011;3800;48.922;9.444;2022-12-16T04:08:11;36.30;;;23.43;;
7517;SDS011;3800;48.922;9.444;2022-12-16T04:10:38;34.90;;;25.03;;
7517;SDS011;3800;48.922;9.444;2022-12-16T04:13:12;36.40;;;24.63;;
7517;SDS011;3800;48.922;9.444;2022-12-16T04:15:45;34.77;;;23.83;;
7517;SDS011;3800;48.922;9.444;2022-12-16T04:18:18;36.60;;;23.97;;
7517;SDS011;3800;48.922;9.444;2022-12-16T04:21:02;36.90;;;23.87;;
7517;SDS011;3800;48.922;9.444;2022-12-16T04:23:36;36.77;;;22.73;;
7517;SDS011;3800;48.922;9.444;2022-12-16T04:26:09;38.37;;;22.93;;
7517;SDS011;3800;48.922;9.444;2022-12-16T04:28:36;33.43;;;22.30;;
7517;SDS011;3800;48.922;9.444;2022-12-16T04:31:04;32.10;;;22.10;;
7517;SDS011;3800;48.922;9.444;2022-12-16T04:33:32;32.97;;;22.13;;
7517;SDS011;3800;48.922;9.444;2022-12-16T04:36:05;33.10;;;22.63;;
7517;SDS011;3800;48.922;9.444;2022-12-16T04:38:38;32.37;;;22.10;;
7517;SDS011;3800;48.922;9.444;2022-12-16T04:41:11;33.00;;;21.50;;
7517;SDS011;3800;48.922;9.444;2022-12-16T04:43:44;33.93;;;22.60;;
7517;SDS011;3800;48.922;9.444;2022-12-16T04:46:17;32.77;;;22.43;;
7517;SDS011;3800;48.922;9.444;2022-12-16T04:49:04;28.77;;;20.67;;
7517;SDS011;3800;48.922;9.444;2022-12-16T04:51:50;35.07;;;22.00;;
7517;SDS011;3800;48.922;9.444;2022-12-16T04:54:23;33.03;;;22.73;;
7517;SDS011;3800;48.922;9.444;2022-12-16T04:56:57;31.80;;;21.97;;
7517;SDS011;3800;48.922;9.444;2022-12-16T04:59:30;33.47;;;21.80;;
7517;SDS011;3800;48.922;9.444;2022-12-16T05:02:03;34.43;;;21.60;;
7517;SDS011;3800;48.922;9.444;2022-12-16T05:04:36;34.07;;;23.20;;
7517;SDS011;3800;48.922;9.444;2022-12-16T05:07:09;30.30;;;21.67;;
7517;SDS011;3800;48.922;9.444;2022-12-16T05:09:42;31.30;;;21.20;;
7517;SDS011;3800;48.922;9.444;2022-12-16T05:12:16;32.93;;;22.17;;
7517;SDS011;3800;48.922;9.444;2022-12-16T05:14:49;30.67;;;21.30;;
7517;SDS011;3800;48.922;9.444;2022-12-16T05:17:22;32.77;;;21.90;;
7517;SDS011;3800;48.922;9.444;2022-12-16T05:19:55;29.17;;;20.40;;
7517;SDS011;3800;48.922;9.444;2022-12-16T05:22:28;28.40;;;19.80;;
7517;SDS011;3800;48.922;9.444;2022-12-16T05:25:01;31.80;;;20.77;;
7517;SDS011;3800;48.922;9.444;2022-12-16T05:27:34;29.57;;;20.03;;
7517;SDS011;3800;48.922;9.444;2022-12-16T05:30:09;29.33;;;19.60;;
7517;SDS011;3800;48.922;9.444;2022-12-16T05:32:42;26.80;;;19.50;;
7517;SDS011;3800;48.922;9.444;2022-12-16T05:35:15;25.90;;;18.37;;
7517;SDS011;3800;48.922;9.444;2022-12-16T05:37:48;22.30;;;16.77;;
7517;SDS011;3800;48.922;9.444;2022-12-16T05:40:21;26.13;;;18.17;;
7517;SDS011;3800;48.922;9.444;2022-12-16T05:42:54;27.37;;;19.23;;
7517;SDS011;3800;48.922;9.444;2022-12-16T05:45:28;28.83;;;18.43;;
7517;SDS011;3800;48.922;9.444;2022-12-16T05:48:01;25.37;;;18.60;;
7517;SDS011;3800;48.922;9.444;2022-12-16T05:50:34;25.10;;;16.77;;
7517;SDS011;3800;48.922;9.444;2022-12-16T05:53:07;27.83;;;17.97;;
7517;SDS011;3800;48.922;9.444;2022-12-16T05:55:41;23.40;;;16.10;;
7517;SDS011;3800;48.922;9.444;2022-12-16T05:58:13;24.13;;;16.60;;
7517;SDS011;3800;48.922;9.444;2022-12-16T06:00:47;23.73;;;16.40;;
7517;SDS011;3800;48.922;9.444;2022-12-16T06:03:20;21.37;;;16.00;;
7517;SDS011;3800;48.922;9.444;2022-12-16T06:05:53;22.47;;;17.30;;
7517;SDS011;3800;48.922;9.444;2022-12-16T06:08:26;27.83;;;17.87;;
7517;SDS011;3800;48.922;9.444;2022-12-16T06:10:59;28.20;;;18.27;;
7517;SDS011;3800;48.922;9.444;2022-12-16T06:13:32;24.57;;;18.20;;
7517;SDS011;3800;48.922;9.444;2022-12-16T06:16:06;27.47;;;18.20;;
7517;SDS011;3800;48.922;9.444;2022-12-16T06:18:39;29.23;;;19.20;;
7517;SDS011;3800;48.922;9.444;2022-12-16T06:21:25;30.43;;;19.27;;
7517;SDS011;3800;48.922;9.444;2022-12-16T06:23:58;25.87;;;18.13;;
7517;SDS011;3800;48.922;9.444;2022-12-16T06:26:31;27.37;;;18.40;;
7517;SDS011;3800;48.922;9.444;2022-12-16T06:29:06;26.80;;;18.43;;
7517;SDS011;3800;48.922;9.444;2022-12-16T06:31:38;27.13;;;18.90;;
7517;SDS011;3800;48.922;9.444;2022-12-16T06:34:11;24.90;;;18.90;;
7517;SDS011;3800;48.922;9.444;2022-12-16T06:36:44;27.77;;;20.50;;
7517;SDS011;3800;48.922;9.444;2022-12-16T06:39:17;35.70;;;24.53;;
7517;SDS011;3800;48.922;9.444;2022-12-16T06:41:50;41.13;;;28.70;;
7517;SDS011;3800;48.922;9.444;2022-12-16T06:44:24;43.03;;;28.03;;
7517;SDS011;3800;48.922;9.444;2022-12-16T06:46:57;35.37;;;25.60;;
7517;SDS011;3800;48.922;9.444;2022-12-16T06:49:30;37.17;;;23.07;;
7517;SDS011;3800;48.922;9.444;2022-12-16T06:52:03;33.77;;;22.33;;
7517;SDS011;3800;48.922;9.444;2022-12-16T06:54:36;29.90;;;19.63;;
7517;SDS011;3800;48.922;9.444;2022-12-16T06:57:10;30.87;;;21.00;;
7517;SDS011;3800;48.922;9.444;2022-12-16T06:59:43;32.23;;;22.60;;
7517;SDS011;3800;48.922;9.444;2022-12-16T07:02:16;30.57;;;20.30;;
7517;SDS011;3800;48.922;9.444;2022-12-16T07:04:49;30.60;;;19.57;;
7517;SDS011;3800;48.922;9.444;2022-12-16T07:07:22;29.10;;;19.67;;
7517;SDS011;3800;48.922;9.444;2022-12-16T07:09:56;24.63;;;18.10;;
7517;SDS011;3800;48.922;9.444;2022-12-16T07:12:29;26.73;;;17.60;;
7517;SDS011;3800;48.922;9.444;2022-12-16T07:15:02;27.20;;;18.03;;
7517;SDS011;3800;48.922;9.444;2022-12-16T07:17:35;25.00;;;17.77;;
7517;SDS011;3800;48.922;9.444;2022-12-16T07:20:08;26.40;;;18.23;;
7517;SDS011;3800;48.922;9.444;2022-12-16T07:22:42;23.17;;;16.20;;
7517;SDS011;3800;48.922;9.444;2022-12-16T07:25:15;25.40;;;17.53;;
7517;SDS011;3800;48.922;9.444;2022-12-16T07:27:48;22.40;;;16.43;;
7517;SDS011;3800;48.922;9.444;2022-12-16T07:30:21;24.40;;;16.80;;
7517;SDS011;3800;48.922;9.444;2022-12-16T07:32:54;26.23;;;17.33;;
7517;SDS011;3800;48.922;9.444;2022-12-16T07:35:27;23.50;;;16.90;;
7517;SDS011;3800;48.922;9.444;2022-12-16T07:38:01;24.83;;;17.97;;
7517;SDS011;3800;48.922;9.444;2022-12-16T07:40:34;25.57;;;17.03;;
7517;SDS011;3800;48.922;9.444;2022-12-16T07:43:07;25.03;;;17.40;;
7517;SDS011;3800;48.922;9.444;2022-12-16T07:45:40;24.33;;;16.87;;
7517;SDS011;3800;48.922;9.444;2022-12-16T07:48:13;28.40;;;17.37;;
7517;SDS011;3800;48.922;9.444;2022-12-16T07:50:46;24.17;;;16.97;;
7517;SDS011;3800;48.922;9.444;2022-12-16T07:53:20;23.13;;;16.37;;
7517;SDS011;3800;48.922;9.444;2022-12-16T07:56:03;25.40;;;16.03;;
7517;SDS011;3800;48.922;9.444;2022-12-16T07:58:36;24.27;;;16.83;;
7517;SDS011;3800;48.922;9.444;2022-12-16T08:01:09;21.67;;;16.13;;
7517;SDS011;3800;48.922;9.444;2022-12-16T08:03:42;21.90;;;15.70;;
7517;SDS011;3800;48.922;9.444;2022-12-16T08:06:15;22.90;;;16.53;;
7517;SDS011;3800;48.922;9.444;2022-12-16T08:08:48;21.50;;;15.27;;
7517;SDS011;3800;48.922;9.444;2022-12-16T08:11:22;20.97;;;14.93;;
7517;SDS011;3800;48.922;9.444;2022-12-16T08:13:55;21.27;;;15.07;;
7517;SDS011;3800;48.922;9.444;2022-12-16T08:16:28;21.93;;;15.03;;
7517;SDS011;3800;48.922;9.444;2022-12-16T08:19:01;21.43;;;15.53;;
7517;SDS011;3800;48.922;9.444;2022-12-16T08:21:34;20.23;;;15.33;;
7517;SDS011;3800;48.922;9.444;2022-12-16T08:24:07;22.80;;;15.97;;
7517;SDS011;3800;48.922;9.444;2022-12-16T08:26:41;20.73;;;15.40;;
7517;SDS011;3800;48.922;9.444;2022-12-16T08:29:14;27.07;;;16.03;;
7517;SDS011;3800;48.922;9.444;2022-12-16T08:31:47;26.53;;;16.90;;
7517;SDS011;3800;48.922;9.444;2022-12-16T08:34:20;23.60;;;16.77;;
7517;SDS011;3800;48.922;9.444;2022-12-16T08:36:53;23.33;;;17.37;;
7517;SDS011;3800;48.922;9.444;2022-12-16T08:39:26;23.00;;;15.20;;
7517;SDS011;3800;48.922;9.444;2022-12-16T08:42:00;23.87;;;16.60;;
7517;SDS011;3800;48.922;9.444;2022-12-16T08:44:33;24.57;;;17.17;;
7517;SDS011;3800;48.922;9.444;2022-12-16T08:47:16;27.17;;;16.23;;
7517;SDS011;3800;48.922;9.444;2022-12-16T08:49:49;22.17;;;16.00;;
7517;SDS011;3800;48.922;9.444;2022-12-16T08:52:23;21.70;;;14.67;;
7517;SDS011;3800;48.922;9.444;2022-12-16T08:54:56;21.20;;;13.57;;
7517;SDS011;3800;48.922;9.444;2022-12-16T08:57:29;21.07;;;13.77;;
7517;SDS011;3800;48.922;9.444;2022-12-16T09:00:03;21.70;;;14.77;;
7517;SDS011;3800;48.922;9.444;2022-12-16T09:02:35;22.60;;;14.73;;
7517;SDS011;3800;48.922;9.444;2022-12-16T09:05:08;23.20;;;14.03;;
7517;SDS011;3800;48.922;9.444;2022-12-16T09:07:42;21.40;;;13.70;;
7517;SDS011;3800;48.922;9.444;2022-12-16T09:10:15;21.43;;;13.50;;
7517;SDS011;3800;48.922;9.444;2022-12-16T09:12:48;28.07;;;16.47;;
7517;SDS011;3800;48.922;9.444;2022-12-16T09:15:21;30.87;;;15.43;;
7517;SDS011;3800;48.922;9.444;2022-12-16T09:17:55;29.57;;;16.23;;
7517;SDS011;3800;48.922;9.444;2022-12-16T09:20:27;25.37;;;15.47;;
7517;SDS011;3800;48.922;9.444;2022-12-16T09:23:01;23.27;;;14.03;;
7517;SDS011;3800;48.922;9.444;2022-12-16T09:25:34;18.20;;;13.67;;
7517;SDS011;3800;48.922;9.444;2022-12-16T09:28:07;16.77;;;12.53;;
7517;SDS011;3800;48.922;9.444;2022-12-16T09:30:40;17.87;;;12.20;;
7517;SDS011;3800;48.922;9.444;2022-12-16T09:33:13;17.07;;;12.80;;
7517;SDS011;3800;48.922;9.444;2022-12-16T09:35:47;17.77;;;12.47;;
7517;SDS011;3800;48.922;9.444;2022-12-16T09:38:20;19.50;;;12.93;;
7517;SDS011;3800;48.922;9.444;2022-12-16T09:40:54;17.87;;;13.50;;
7517;SDS011;3800;48.922;9.444;2022-12-16T09:43:34;18.03;;;13.13;;
7517;SDS011;3800;48.922;9.444;2022-12-16T09:46:07;19.83;;;12.40;;
7517;SDS011;3800;48.922;9.444;2022-12-16T09:48:56;17.70;;;12.10;;
7517;SDS011;3800;48.922;9.444;2022-12-16T09:51:40;16.10;;;12.60;;
7517;SDS011;3800;48.922;9.444;2022-12-16T09:54:14;18.03;;;12.70;;
7517;SDS011;3800;48.922;9.444;2022-12-16T09:56:47;18.27;;;12.80;;
7517;SDS011;3800;48.922;9.444;2022-12-16T09:59:23;19.63;;;12.97;;
7517;SDS011;3800;48.922;9.444;2022-12-16T10:01:54;17.77;;;12.77;;
7517;SDS011;3800;48.922;9.444;2022-12-16T10:04:27;15.83;;;12.23;;
7517;SDS011;3800;48.922;9.444;2022-12-16T10:07:16;20.63;;;12.90;;
7517;SDS011;3800;48.922;9.444;2022-12-16T10:09:56;18.27;;;13.07;;
7517;SDS011;3800;48.922;9.444;2022-12-16T10:13:08;18.60;;;13.73;;
7517;SDS011;3800;48.922;9.444;2022-12-16T10:15:30;17.53;;;12.40;;
7517;SDS011;3800;48.922;9.444;2022-12-16T10:18:12;15.83;;;11.87;;
7517;SDS011;3800;48.922;9.444;2022-12-16T10:20:43;14.73;;;11.53;;
7517;SDS011;3800;48.922;9.444;2022-12-16T10:23:19;17.57;;;12.37;;
7517;SDS011;3800;48.922;9.444;2022-12-16T10:25:51;16.30;;;12.10;;
7517;SDS011;3800;48.922;9.444;2022-12-16T10:28:37;16.87;;;12.37;;
7517;SDS011;3800;48.922;9.444;2022-12-16T10:31:21;18.13;;;12.20;;
7517;SDS011;3800;48.922;9.444;2022-12-16T10:33:54;16.37;;;12.13;;
7517;SDS011;3800;48.922;9.444;2022-12-16T10:36:28;15.83;;;11.87;;
7517;SDS011;3800;48.922;9.444;2022-12-16T10:39:02;15.07;;;11.73;;
7517;SDS011;3800;48.922;9.444;2022-12-16T10:41:36;18.27;;;12.73;;
7517;SDS011;3800;48.922;9.444;2022-12-16T10:47:00;14.33;;;11.13;;
7517;SDS011;3800;48.922;9.444;2022-12-16T10:49:33;19.40;;;13.30;;
7517;SDS011;3800;48.922;9.444;2022-12-16T10:52:08;21.03;;;13.67;;
7517;SDS011;3800;48.922;9.444;2022-12-16T10:54:41;17.73;;;12.20;;
7517;SDS011;3800;48.922;9.444;2022-12-16T10:57:22;16.80;;;11.10;;
7517;SDS011;3800;48.922;9.444;2022-12-16T11:02:41;15.30;;;11.50;;
7517;SDS011;3800;48.922;9.444;2022-12-16T11:07:53;15.30;;;11.20;;
7517;SDS011;3800;48.922;9.444;2022-12-16T11:10:28;15.87;;;12.07;;
7517;SDS011;3800;48.922;9.444;2022-12-16T11:13:12;14.60;;;11.70;;
7517;SDS011;3800;48.922;9.444;2022-12-16T11:15:50;15.63;;;11.57;;
7517;SDS011;3800;48.922;9.444;2022-12-16T11:18:22;19.23;;;11.90;;
7517;SDS011;3800;48.922;9.444;2022-12-16T11:23:38;17.80;;;12.27;;
7517;SDS011;3800;48.922;9.444;2022-12-16T11:26:13;16.63;;;12.43;;
7517;SDS011;3800;48.922;9.444;2022-12-16T11:28:47;17.10;;;11.97;;
7517;SDS011;3800;48.922;9.444;2022-12-16T11:31:18;16.63;;;12.20;;
7517;SDS011;3800;48.922;9.444;2022-12-16T11:33:52;16.93;;;12.37;;
7517;SDS011;3800;48.922;9.444;2022-12-16T11:36:25;18.33;;;14.17;;
7517;SDS011;3800;48.922;9.444;2022-12-16T11:38:58;19.53;;;15.57;;
7517;SDS011;3800;48.922;9.444;2022-12-16T11:41:33;17.33;;;13.03;;
7517;SDS011;3800;48.922;9.444;2022-12-16T11:44:07;18.33;;;12.53;;
7517;SDS011;3800;48.922;9.444;2022-12-16T11:46:39;16.93;;;12.97;;
7517;SDS011;3800;48.922;9.444;2022-12-16T11:49:16;16.80;;;13.17;;
7517;SDS011;3800;48.922;9.444;2022-12-16T11:51:54;18.53;;;12.43;;
7517;SDS011;3800;48.922;9.444;2022-12-16T11:54:28;15.00;;;11.93;;
7517;SDS011;3800;48.922;9.444;2022-12-16T11:57:01;16.13;;;12.47;;
7517;SDS011;3800;48.922;9.444;2022-12-16T11:59:39;16.10;;;12.37;;
7517;SDS011;3800;48.922;9.444;2022-12-16T12:02:14;18.13;;;12.23;;
7517;SDS011;3800;48.922;9.444;2022-12-16T12:04:48;17.33;;;12.93;;
7517;SDS011;3800;48.922;9.444;2022-12-16T12:07:24;18.17;;;12.37;;
7517;SDS011;3800;48.922;9.444;2022-12-16T12:10:00;18.23;;;11.77;;
7517;SDS011;3800;48.922;9.444;2022-12-16T12:12:35;18.33;;;11.77;;
7517;SDS011;3800;48.922;9.444;2022-12-16T12:15:16;17.67;;;11.23;;
7517;SDS011;3800;48.922;9.444;2022-12-16T12:19:00;17.40;;;12.50;;
7517;SDS011;3800;48.922;9.444;2022-12-16T12:20:54;15.07;;;10.73;;
7517;SDS011;3800;48.922;9.444;2022-12-16T12:23:31;14.63;;;11.57;;
7517;SDS011;3800;48.922;9.444;2022-12-16T12:26:08;15.10;;;11.43;;
7517;SDS011;3800;48.922;9.444;2022-12-16T12:28:46;14.30;;;11.27;;
7517;SDS011;3800;48.922;9.444;2022-12-16T12:31:26;15.73;;;11.27;;
7517;SDS011;3800;48.922;9.444;2022-12-16T12:33:59;15.70;;;11.13;;
7517;SDS011;3800;48.922;9.444;2022-12-16T12:36:36;17.37;;;11.40;;
7517;SDS011;3800;48.922;9.444;2022-12-16T12:39:10;18.40;;;12.10;;
7517;SDS011;3800;48.922;9.444;2022-12-16T12:41:55;18.30;;;12.23;;
7517;SDS011;3800;48.922;9.444;2022-12-16T12:47:36;20.53;;;12.27;;
7517;SDS011;3800;48.922;9.444;2022-12-16T12:50:12;17.53;;;12.23;;
7517;SDS011;3800;48.922;9.444;2022-12-16T12:55:55;15.57;;;10.70;;
7517;SDS011;3800;48.922;9.444;2022-12-16T12:58:24;15.07;;;11.27;;
7517;SDS011;3800;48.922;9.444;2022-12-16T13:00:58;13.10;;;10.77;;
7517;SDS011;3800;48.922;9.444;2022-12-16T13:03:32;13.53;;;10.50;;
7517;SDS011;3800;48.922;9.444;2022-12-16T13:06:05;15.57;;;11.03;;
7517;SDS011;3800;48.922;9.444;2022-12-16T13:08:42;15.83;;;10.63;;
7517;SDS011;3800;48.922;9.444;2022-12-16T13:11:14;15.53;;;10.93;;
7517;SDS011;3800;48.922;9.444;2022-12-16T13:13:48;20.17;;;10.93;;
7517;SDS011;3800;48.922;9.444;2022-12-16T13:25:01;19.00;;;11.70;;
7517;SDS011;3800;48.922;9.444;2022-12-16T13:30:18;14.47;;;11.07;;
7517;SDS011;3800;48.922;9.444;2022-12-16T13:32:53;15.90;;;11.40;;
7517;SDS011;3800;48.922;9.444;2022-12-16T13:35:28;15.87;;;11.03;;
7517;SDS011;3800;48.922;9.444;2022-12-16T13:38:02;14.83;;;10.63;;
7517;SDS011;3800;48.922;9.444;2022-12-16T13:46:11;15.93;;;10.57;;
7517;SDS011;3800;48.922;9.444;2022-12-16T13:48:46;15.37;;;10.47;;
7517;SDS011;3800;48.922;9.444;2022-12-16T13:51:58;13.17;;;9.80;;
7517;SDS011;3800;48.922;9.444;2022-12-16T13:54:28;13.40;;;10.10;;
7517;SDS011;3800;48.922;9.444;2022-12-16T13:57:01;13.67;;;10.53;;
7517;SDS011;3800;48.922;9.444;2022-12-16T13:59:34;12.50;;;9.40;;
7517;SDS011;3800;48.922;9.444;2022-12-16T14:02:13;18.80;;;10.97;;
7517;SDS011;3800;48.922;9.444;2022-12-16T14:04:46;13.83;;;10.63;;
7517;SDS011;3800;48.922;9.444;2022-12-16T14:07:19;13.93;;;10.60;;
7517;SDS011;3800;48.922;9.444;2022-12-16T14:09:51;13.93;;;11.27;;
7517;SDS011;3800;48.922;9.444;2022-12-16T14:12:37;15.80;;;10.70;;
7517;SDS011;3800;48.922;9.444;2022-12-16T14:15:13;15.00;;;10.83;;
7517;SDS011;3800;48.922;9.444;2022-12-16T14:17:45;15.33;;;10.80;;
7517;SDS011;3800;48.922;9.444;2022-12-16T14:20:25;16.30;;;11.03;;
7517;SDS011;3800;48.922;9.444;2022-12-16T14:26:03;14.83;;;11.00;;
7517;SDS011;3800;48.922;9.444;2022-12-16T14:28:37;15.43;;;10.23;;
7517;SDS011;3800;48.922;9.444;2022-12-16T14:31:12;15.63;;;11.40;;
7517;SDS011;3800;48.922;9.444;2022-12-16T14:33:53;15.23;;;10.53;;
7517;SDS011;3800;48.922;9.444;2022-12-16T14:36:27;12.87;;;10.33;;
7517;SDS011;3800;48.922;9.444;2022-12-16T14:39:00;15.77;;;11.07;;
7517;SDS011;3800;48.922;9.444;2022-12-16T14:41:48;12.90;;;10.27;;
7517;SDS011;3800;48.922;9.444;2022-12-16T14:44:19;14.97;;;11.23;;
7517;SDS011;3800;48.922;9.444;2022-12-16T14:46:51;13.83;;;10.23;;
7517;SDS011;3800;48.922;9.444;2022-12-16T14:49:25;13.40;;;10.27;;
7517;SDS011;3800;48.922;9.444;2022-12-16T14:51:58;15.07;;;10.77;;
7517;SDS011;3800;48.922;9.444;2022-12-16T14:54:35;13.03;;;10.30;;
7517;SDS011;3800;48.922;9.444;2022-12-16T14:57:21;15.03;;;10.47;;
7517;SDS011;3800;48.922;9.444;2022-12-16T14:59:59;13.27;;;10.33;;
7517;SDS011;3800;48.922;9.444;2022-12-16T15:02:34;18.17;;;10.17;;
7517;SDS011;3800;48.922;9.444;2022-12-16T15:05:06;15.23;;;10.97;;
7517;SDS011;3800;48.922;9.444;2022-12-16T15:07:39;14.10;;;10.53;;
7517;SDS011;3800;48.922;9.444;2022-12-16T15:10:14;15.37;;;11.03;;
7517;SDS011;3800;48.922;9.444;2022-12-16T15:12:48;15.23;;;11.50;;
7517;SDS011;3800;48.922;9.444;2022-12-16T15:15:30;15.63;;;11.77;;
7517;SDS011;3800;48.922;9.444;2022-12-16T15:18:01;13.57;;;11.43;;
7517;SDS011;3800;48.922;9.444;2022-12-16T15:20:36;14.63;;;10.93;;
7517;SDS011;3800;48.922;9.444;2022-12-16T15:23:19;13.80;;;10.37;;
7517;SDS011;3800;48.922;9.444;2022-12-16T15:25:55;14.70;;;10.37;;
7517;SDS011;3800;48.922;9.444;2022-12-16T15:28:41;13.27;;;10.63;;
7517;SDS011;3800;48.922;9.444;2022-12-16T15:31:22;17.83;;;11.03;;
7517;SDS011;3800;48.922;9.444;2022-12-16T15:36:49;13.43;;;10.67;;
7517;SDS011;3800;48.922;9.444;2022-12-16T15:39:28;12.83;;;10.93;;
7517;SDS011;3800;48.922;9.444;2022-12-16T15:42:03;16.57;;;11.70;;
7517;SDS011;3800;48.922;9.444;2022-12-16T15:44:36;15.23;;;12.23;;
7517;SDS011;3800;48.922;9.444;2022-12-16T15:49:55;17.00;;;11.70;;
7517;SDS011;3800;48.922;9.444;2022-12-16T15:52:33;17.60;;;11.33;;
7517;SDS011;3800;48.922;9.444;2022-12-16T15:55:21;15.17;;;12.03;;
7517;SDS011;3800;48.922;9.444;2022-12-16T15:57:53;16.27;;;12.07;;
7517;SDS011;3800;48.922;9.444;2022-12-16T16:00:27;16.57;;;11.63;;
7517;SDS011;3800;48.922;9.444;2022-12-16T16:02:59;15.23;;;11.70;;
7517;SDS011;3800;48.922;9.444;2022-12-16T16:05:33;20.50;;;14.93;;
7517;SDS011;3800;48.922;9.444;2022-12-16T16:08:06;26.93;;;19.67;;
7517;SDS011;3800;48.922;9.444;2022-12-16T16:10:40;19.33;;;12.10;;
7517;SDS011;3800;48.922;9.444;2022-12-16T16:13:12;16.27;;;11.97;;